Time;durP1;ratioP1;P1;durP2;ratioP2;P2;SDS_P1;SDS_P2;PMS_P1;PMS_P2;Temp;Humidity;BMP_temperature;BMP_pressure;BME280_temperature;BME280_humidity;BME280_pressure;Samples;Min_cycle;Max_cycle;Signal;HPM_P1;HPM_P2
2022/01/04 00:00:11;;;;;;;11.40;3.17;;;;;;;7.92;99.01;99267.03;5070402;28;20178;-74
2022/01/04 00:02:36;;;;;;;3.63;3.33;;;;;;;7.92;98.50;99276.00;5070908;28;20221;-74
2022/01/04 00:05:04;;;;;;;1.30;1.17;;;;;;;7.91;98.96;99268.16;5069740;28;20648;-74
2022/01/04 00:07:31;;;;;;;2.33;1.77;;;;;;;7.90;99.07;99256.50;5070780;28;20170;-74
2022/01/04 00:09:56;;;;;;;2.00;1.70;;;;;;;7.87;98.60;99254.44;5070775;28;20174;-73
2022/01/04 00:15:06;;;;;;;1.53;1.43;;;;;;;7.90;98.51;99248.34;5070489;28;20205;-74
2022/01/04 00:17:32;;;;;;;1.17;1.17;;;;;;;7.88;98.83;99258.75;5070744;28;20214;-73
2022/01/04 00:19:57;;;;;;;4.63;4.03;;;;;;;7.87;98.52;99253.63;5070733;28;20213;-74
2022/01/04 00:22:23;;;;;;;2.73;2.53;;;;;;;7.86;98.91;99252.03;5070671;28;20513;-74
2022/01/04 00:24:48;;;;;;;1.13;1.13;;;;;;;7.85;98.73;99245.78;5070461;28;20649;-74
2022/01/04 00:27:14;;;;;;;5.70;2.83;;;;;;;7.84;99.05;99236.03;5070334;28;20562;-74
2022/01/04 00:29:39;;;;;;;2.60;2.40;;;;;;;7.86;99.38;99246.59;5070806;28;20267;-75
2022/01/04 00:32:05;;;;;;;0.80;0.80;;;;;;;7.87;98.87;99248.19;5070560;28;20174;-74
2022/01/04 00:34:30;;;;;;;1.50;1.40;;;;;;;7.86;99.47;99233.00;5070398;28;20224;-74
2022/01/04 00:36:56;;;;;;;0.97;0.93;;;;;;;7.87;98.50;99219.06;5070479;28;20185;-74
2022/01/04 00:39:21;;;;;;;2.87;2.40;;;;;;;7.86;98.36;99222.13;5070439;28;20175;-74
2022/01/04 00:41:46;;;;;;;2.03;1.93;;;;;;;7.85;98.33;99221.31;5070386;28;20210;-74
2022/01/04 00:44:13;;;;;;;2.57;2.03;;;;;;;7.88;98.78;99215.22;5070172;28;20178;-74
2022/01/04 00:46:38;;;;;;;2.27;1.97;;;;;;;7.89;97.86;99211.38;5068926;28;20617;-74
2022/01/04 00:49:10;;;;;;;3.20;2.77;;;;;;;7.90;97.97;99212.19;5069132;28;20206;-74
2022/01/04 00:51:43;;;;;;;1.83;1.03;;;;;;;7.89;97.93;99207.88;5070349;28;20565;-74
2022/01/04 00:54:09;;;;;;;1.20;1.10;;;;;;;7.86;98.74;99205.81;5070177;28;20230;-74
2022/01/04 00:56:35;;;;;;;4.77;3.73;;;;;;;7.84;98.64;99199.91;5070149;28;20205;-74
2022/01/04 00:59:02;;;;;;;1.20;1.10;;;;;;;7.87;98.49;99188.38;5070402;28;20618;-74
2022/01/04 01:01:28;;;;;;;3.60;3.20;;;;;;;7.87;97.98;99191.09;5070506;28;20183;-74
2022/01/04 01:03:53;;;;;;;5.17;2.63;;;;;;;7.90;97.67;99185.00;5070613;28;20179;-74
2022/01/04 01:06:19;;;;;;;2.13;1.40;;;;;;;7.90;97.13;99183.06;5070222;28;20175;-74
2022/01/04 01:08:45;;;;;;;6.07;2.43;;;;;;;7.91;97.46;99164.84;5070310;28;20604;-74
2022/01/04 01:11:10;;;;;;;2.23;1.80;;;;;;;7.93;97.08;99174.25;5070407;28;20224;-73
2022/01/04 01:13:36;;;;;;;3.23;2.93;;;;;;;7.93;96.65;99162.59;5073268;28;20202;-74
2022/01/04 01:16:02;;;;;;;3.20;2.80;;;;;;;7.89;97.36;99151.56;5073775;28;20560;-74
2022/01/04 01:18:27;;;;;;;3.00;2.70;;;;;;;7.89;97.12;99156.22;5073883;28;20186;-74
2022/01/04 01:20:53;;;;;;;8.57;4.43;;;;;;;7.88;97.30;99147.25;5073977;28;20182;-73
2022/01/04 01:23:20;;;;;;;4.33;3.93;;;;;;;7.87;97.39;99137.50;5073705;28;20291;-74
2022/01/04 01:25:46;;;;;;;3.97;3.67;;;;;;;7.91;97.90;99138.44;5073428;28;20273;-74
2022/01/04 01:28:12;;;;;;;4.90;3.93;;;;;;;7.90;97.80;99146.94;5073785;28;20183;-74
2022/01/04 01:30:40;;;;;;;7.73;4.30;;;;;;;7.82;98.69;99137.69;5073731;28;20186;-74
2022/01/04 01:33:06;;;;;;;4.30;3.93;;;;;;;7.62;99.30;99132.94;5073759;28;20170;-74
2022/01/04 01:35:33;;;;;;;9.30;2.53;;;;;;;7.71;100.00;99139.94;5072186;28;20198;-75
2022/01/04 01:37:58;;;;;;;7.30;4.23;;;;;;;7.74;99.87;99131.16;5074196;28;20183;-74
2022/01/04 01:40:24;;;;;;;4.00;2.97;;;;;;;7.76;100.00;99120.75;5073927;28;20518;-74
2022/01/04 01:42:50;;;;;;;7.87;4.07;;;;;;;7.85;99.91;99122.63;5073466;28;20269;-74
2022/01/04 01:45:16;;;;;;;4.40;3.97;;;;;;;7.88;100.00;99111.09;5073388;28;20660;-74
2022/01/04 01:47:44;;;;;;;4.03;3.63;;;;;;;7.94;99.59;99112.50;5073411;28;20585;-75
2022/01/04 01:50:11;;;;;;;4.80;3.50;;;;;;;7.78;100.00;99108.75;5072079;28;20446;-74
2022/01/04 01:52:38;;;;;;;7.30;4.40;;;;;;;7.67;100.00;99111.03;5073678;28;20623;-75
2022/01/04 01:55:04;;;;;;;6.73;4.07;;;;;;;7.58;100.00;99108.31;5073094;28;20190;-75
2022/01/04 01:57:30;;;;;;;3.87;3.43;;;;;;;7.57;100.00;99106.75;5073299;28;20178;-74
2022/01/04 01:59:56;;;;;;;8.40;4.10;;;;;;;7.56;100.00;99094.28;5073173;28;20189;-74
2022/01/04 02:02:21;;;;;;;4.17;3.37;;;;;;;7.59;100.00;99101.78;5073278;28;20178;-74
2022/01/04 02:04:46;;;;;;;7.97;3.83;;;;;;;7.67;100.00;99095.53;5072891;28;20871;-74
2022/01/04 02:07:12;;;;;;;3.73;3.40;;;;;;;7.79;100.00;99099.47;5073020;28;20229;-75
2022/01/04 02:09:41;;;;;;;3.50;3.00;;;;;;;7.62;100.00;99084.00;5073099;28;20185;-73
2022/01/04 02:12:08;;;;;;;3.63;3.00;;;;;;;7.63;100.00;99080.97;5072943;28;20170;-74
2022/01/04 02:14:33;;;;;;;8.60;3.73;;;;;;;7.66;100.00;99074.88;5071568;28;20266;-75
2022/01/04 02:16:58;;;;;;;3.93;3.23;;;;;;;7.62;100.00;99081.28;5072896;28;20183;-74
2022/01/04 02:19:25;;;;;;;3.40;3.00;;;;;;;7.70;100.00;99073.13;5072851;28;20171;-74
2022/01/04 02:21:50;;;;;;;3.67;2.73;;;;;;;7.69;100.00;99065.28;5072902;28;20270;-75
2022/01/04 02:24:15;;;;;;;2.40;2.20;;;;;;;7.73;100.00;99061.59;5072255;28;20269;-74
2022/01/04 02:26:41;;;;;;;5.50;3.17;;;;;;;7.75;100.00;99058.53;5072295;28;20185;-75
2022/01/04 02:29:07;;;;;;;4.23;2.60;;;;;;;7.71;100.00;99052.16;5072576;28;20532;-74
2022/01/04 02:31:33;;;;;;;7.83;3.33;;;;;;;7.69;100.00;99048.97;5072620;28;20177;-75
2022/01/04 02:33:58;;;;;;;3.47;2.50;;;;;;;7.70;100.00;99059.53;5072391;28;20194;-74
2022/01/04 02:36:24;;;;;;;5.40;2.50;;;;;;;7.78;100.00;99057.09;5071053;28;20281;-75
2022/01/04 02:38:51;;;;;;;3.33;3.07;;;;;;;7.67;100.00;99002.31;5071319;28;20213;-75
2022/01/04 02:41:17;;;;;;;5.50;2.90;;;;;;;7.67;100.00;99038.44;5073835;28;20384;-75
2022/01/04 02:43:42;;;;;;;3.13;2.77;;;;;;;7.75;100.00;99037.59;5082868;28;20202;-75
2022/01/04 02:46:07;;;;;;;3.17;2.37;;;;;;;7.77;100.00;99045.41;5073192;28;20175;-74
2022/01/04 02:48:43;;;;;;;2.90;2.60;;;;;;;7.72;100.00;99035.53;5072670;28;20232;-75
2022/01/04 02:51:09;;;;;;;4.47;2.67;;;;;;;7.78;100.00;99043.50;5072329;28;20173;-75
2022/01/04 02:53:35;;;;;;;2.40;2.20;;;;;;;7.81;100.00;99034.66;5072083;28;20206;-75
2022/01/04 02:56:00;;;;;;;3.10;2.03;;;;;;;7.81;100.00;99035.50;5072053;28;20175;-75
2022/01/04 02:58:25;;;;;;;2.30;2.07;;;;;;;7.87;100.00;99041.53;5072112;28;20174;-74
2022/01/04 03:00:51;;;;;;;3.90;2.60;;;;;;;7.83;100.00;99025.09;5072318;28;20182;-75
2022/01/04 03:03:16;;;;;;;2.17;1.67;;;;;;;7.67;100.00;99018.63;5069976;28;20716;-75
2022/01/04 03:05:41;;;;;;;3.43;2.30;;;;;;;7.81;100.00;99026.50;5071439;28;20491;-74
2022/01/04 03:08:07;;;;;;;2.00;1.90;;;;;;;7.81;100.00;99021.91;5070547;28;20269;-75
2022/01/04 03:10:32;;;;;;;4.47;2.50;;;;;;;7.72;100.00;99010.25;5071805;28;20213;-75
2022/01/04 03:12:57;;;;;;;2.47;2.10;;;;;;;7.70;100.00;99010.59;5071625;28;20179;-75
2022/01/04 03:15:23;;;;;;;2.80;1.97;;;;;;;7.75;100.00;99013.13;5072061;28;20559;-74
2022/01/04 03:17:48;;;;;;;2.60;1.70;;;;;;;7.86;100.00;99004.59;5070342;28;20170;-74
2022/01/04 03:20:14;;;;;;;1.83;1.73;;;;;;;7.87;100.00;99017.06;5070343;28;20182;-74
2022/01/04 03:22:39;;;;;;;0.67;0.67;;;;;;;7.88;100.00;99007.78;5071407;28;20187;-74
2022/01/04 03:25:05;;;;;;;2.40;1.17;;;;;;;7.87;100.00;99004.25;5071069;28;20166;-75
2022/01/04 03:27:31;;;;;;;1.30;1.20;;;;;;;7.90;100.00;99000.88;5070276;28;20181;-74
2022/01/04 03:29:56;;;;;;;1.27;1.17;;;;;;;7.83;100.00;98992.47;5071550;28;20261;-74
2022/01/04 03:32:22;;;;;;;1.10;1.00;;;;;;;7.86;100.00;98985.56;5071570;28;20184;-74
2022/01/04 03:34:47;;;;;;;1.60;1.20;;;;;;;7.89;100.00;98991.13;5070353;28;20238;-74
2022/01/04 03:37:13;;;;;;;2.10;1.33;;;;;;;7.89;100.00;98982.97;5071277;28;20198;-74
2022/01/04 03:39:38;;;;;;;1.10;1.00;;;;;;;7.86;99.95;98972.78;5071446;28;20536;-74
2022/01/04 03:42:04;;;;;;;0.30;0.30;;;;;;;7.81;100.00;98974.84;5071261;28;20182;-74
2022/01/04 03:44:29;;;;;;;0.80;0.80;;;;;;;7.77;100.00;98966.56;5071190;28;20183;-74
2022/01/04 03:46:55;;;;;;;0.90;0.90;;;;;;;7.74;100.00;98969.97;5071078;28;20174;-74
2022/01/04 03:49:21;;;;;;;1.50;0.70;;;;;;;7.69;100.00;98957.34;5071035;28;20700;-74
2022/01/04 03:51:46;;;;;;;0.73;0.73;;;;;;;7.66;100.00;98958.00;5069780;28;20171;-74
2022/01/04 03:54:12;;;;;;;1.03;1.03;;;;;;;7.65;100.00;98948.25;5069638;28;20206;-74
2022/01/04 03:56:38;;;;;;;1.10;1.00;;;;;;;7.63;100.00;98933.41;5070670;28;20174;-75
2022/01/04 03:59:04;;;;;;;1.40;1.30;;;;;;;7.59;100.00;98927.84;5070863;28;20190;-74
2022/01/04 04:01:29;;;;;;;1.57;1.30;;;;;;;7.58;100.00;98931.66;5071077;28;20252;-74
2022/01/04 04:03:55;;;;;;;0.63;0.63;;;;;;;7.56;100.00;98916.81;5070937;28;20186;-74
2022/01/04 04:06:21;;;;;;;2.73;1.43;;;;;;;7.55;100.00;98915.25;5070808;28;20253;-74
2022/01/04 04:08:46;;;;;;;1.10;1.00;;;;;;;7.53;100.00;98906.63;5070900;28;20206;-74
2022/01/04 04:11:12;;;;;;;0.70;0.70;;;;;;;7.48;100.00;98915.75;5070823;28;20178;-75
2022/01/04 04:13:38;;;;;;;1.03;1.03;;;;;;;7.49;100.00;98892.06;5070735;28;20213;-74
2022/01/04 04:16:06;;;;;;;0.23;0.23;;;;;;;7.48;100.00;98896.72;5070612;28;20184;-74
2022/01/04 04:18:32;;;;;;;1.50;1.40;;;;;;;7.48;100.00;98899.44;5070702;28;20170;-74
2022/01/04 04:20:57;;;;;;;1.73;1.63;;;;;;;7.52;100.00;98884.06;5070724;28;20661;-75
2022/01/04 04:23:22;;;;;;;5.40;1.80;;;;;;;7.50;100.00;98890.94;5070411;28;20681;-74
2022/01/04 04:25:48;;;;;;;1.60;1.50;;;;;;;7.49;100.00;98879.28;5070463;28;20170;-74
2022/01/04 04:28:13;;;;;;;1.80;1.67;;;;;;;7.50;100.00;98885.50;5070766;28;20526;-74
2022/01/04 04:30:38;;;;;;;2.70;1.60;;;;;;;7.50;100.00;98880.88;5070818;28;20197;-75
2022/01/04 04:33:04;;;;;;;1.83;1.67;;;;;;;7.49;100.00;98875.78;5070658;28;20320;-74
2022/01/04 04:35:31;;;;;;;1.23;1.10;;;;;;;7.52;100.00;98865.03;5070170;28;20249;-75
2022/01/04 04:37:58;;;;;;;1.40;1.30;;;;;;;7.49;100.00;98860.25;5069569;28;20543;-74
2022/01/04 04:40:23;;;;;;;1.30;1.20;;;;;;;7.45;100.00;98851.97;5070458;28;20177;-74
2022/01/04 04:42:49;;;;;;;1.63;1.53;;;;;;;7.47;100.00;98857.09;5070305;28;20175;-75
2022/01/04 04:45:14;;;;;;;2.77;1.47;;;;;;;7.47;100.00;98852.44;5078518;28;20170;-75
2022/01/04 04:47:39;;;;;;;3.27;1.53;;;;;;;7.44;100.00;98847.69;5078924;28;20174;-74
2022/01/04 04:50:05;;;;;;;2.10;1.30;;;;;;;7.43;100.00;98837.16;5075068;28;20189;-75
2022/01/04 04:52:31;;;;;;;1.10;1.07;;;;;;;7.37;100.00;98830.28;5074540;28;20253;-75
2022/01/04 04:54:56;;;;;;;2.17;1.53;;;;;;;7.35;100.00;98833.34;5073043;28;20645;-75
2022/01/04 04:57:22;;;;;;;1.00;1.00;;;;;;;7.37;100.00;98835.72;5073082;28;20182;-74
2022/01/04 04:59:47;;;;;;;1.30;1.10;;;;;;;7.35;100.00;98825.19;5074352;28;20182;-74
2022/01/04 05:02:12;;;;;;;0.40;0.40;;;;;;;7.38;100.00;98815.63;5074305;28;20181;-75
2022/01/04 05:04:38;;;;;;;1.80;1.60;;;;;;;7.37;100.00;98817.50;5073981;28;20183;-74
2022/01/04 05:07:04;;;;;;;1.40;1.17;;;;;;;7.35;100.00;98813.53;5074172;28;20186;-74
2022/01/04 05:09:29;;;;;;;1.30;1.20;;;;;;;7.31;100.00;98815.31;5074120;28;20174;-74
2022/01/04 05:11:54;;;;;;;0.97;0.93;;;;;;;7.24;100.00;98804.19;5072698;28;20605;-74
2022/01/04 05:14:20;;;;;;;0.33;0.20;;;;;;;7.21;100.00;98793.97;5067653;28;20235;-74
2022/01/04 05:16:48;;;;;;;1.37;0.97;;;;;;;7.19;100.00;98796.22;5068302;28;20247;-73
2022/01/04 05:19:14;;;;;;;1.50;1.23;;;;;;;7.17;100.00;98785.69;5074177;28;20181;-74
2022/01/04 05:21:39;;;;;;;0.80;0.80;;;;;;;7.14;100.00;98784.44;5073852;28;20182;-75
2022/01/04 05:24:05;;;;;;;1.13;0.73;;;;;;;7.14;100.00;98768.16;5073778;28;20222;-74
2022/01/04 05:26:32;;;;;;;2.17;0.97;;;;;;;7.14;100.00;98773.56;5073511;28;20175;-75
2022/01/04 05:28:58;;;;;;;1.50;1.20;;;;;;;7.14;100.00;98781.72;5074176;28;20182;-74
2022/01/04 05:31:23;;;;;;;1.50;1.40;;;;;;;7.08;100.00;98766.72;5073654;28;20593;-75
2022/01/04 05:33:49;;;;;;;1.77;1.00;;;;;;;7.17;100.00;98766.69;5073518;28;20214;-74
2022/01/04 05:36:14;;;;;;;2.07;1.33;;;;;;;7.16;100.00;98775.97;5073475;28;20174;-75
2022/01/04 05:38:40;;;;;;;1.30;1.20;;;;;;;7.19;100.00;98764.44;5073841;28;20643;-74
2022/01/04 05:41:06;;;;;;;0.47;0.47;;;;;;;7.20;99.98;98765.22;5073499;28;20178;-74
2022/01/04 05:43:31;;;;;;;3.03;0.87;;;;;;;7.18;100.00;98762.84;5073444;28;20177;-74
2022/01/04 05:45:56;;;;;;;0.60;0.60;;;;;;;7.21;99.74;98751.31;5073577;28;20645;-74
2022/01/04 05:48:22;;;;;;;0.80;0.80;;;;;;;7.18;100.00;98770.19;5073342;28;20181;-74
2022/01/04 05:50:48;;;;;;;0.80;0.80;;;;;;;7.18;100.00;98749.25;5073335;28;20185;-73
2022/01/04 05:53:14;;;;;;;1.53;1.10;;;;;;;7.16;99.76;98746.09;5073246;28;20174;-74
2022/01/04 05:55:39;;;;;;;1.20;1.10;;;;;;;7.14;100.00;98749.13;5072969;28;20259;-74
2022/01/04 05:58:04;;;;;;;0.80;0.80;;;;;;;7.11;100.00;98740.84;5072397;28;20178;-74
2022/01/04 06:00:30;;;;;;;0.80;0.80;;;;;;;7.09;100.00;98730.34;5073089;28;20178;-74
2022/01/04 06:02:58;;;;;;;0.67;0.67;;;;;;;7.06;100.00;98730.16;5073056;28;20171;-74
2022/01/04 06:05:24;;;;;;;0.90;0.90;;;;;;;7.05;100.00;98736.72;5072802;28;20601;-74
2022/01/04 06:07:49;;;;;;;0.90;0.77;;;;;;;7.06;100.00;98732.88;5073023;28;20221;-74
2022/01/04 06:10:15;;;;;;;1.37;0.93;;;;;;;7.05;100.00;98715.81;5072919;28;20171;-74
2022/01/04 06:15:08;;;;;;;0.50;0.50;;;;;;;7.06;100.00;98752.69;5072126;28;20301;-74
2022/01/04 06:17:39;;;;;;;1.70;1.20;;;;;;;7.06;100.00;98749.97;5072556;28;20182;-74
2022/01/04 06:20:16;;;;;;;1.33;1.23;;;;;;;7.08;100.00;98749.63;5072478;28;20630;-74
2022/01/04 06:22:43;;;;;;;1.77;1.20;;;;;;;7.07;100.00;98748.84;5072253;28;20178;-74
2022/01/04 06:25:10;;;;;;;0.90;0.90;;;;;;;7.07;100.00;98740.69;5072321;28;20171;-74
2022/01/04 06:27:36;;;;;;;0.70;0.70;;;;;;;7.05;100.00;98755.72;5072519;28;20178;-74
2022/01/04 06:30:02;;;;;;;0.70;0.57;;;;;;;7.02;100.00;98750.97;5073158;28;20170;-74
2022/01/04 06:32:27;;;;;;;1.47;1.37;;;;;;;7.01;100.00;98752.09;5072654;28;20249;-74
2022/01/04 06:34:53;;;;;;;1.70;1.60;;;;;;;7.01;100.00;98755.59;5071024;28;20665;-74
2022/01/04 06:37:19;;;;;;;0.80;0.80;;;;;;;7.00;100.00;98748.59;5072454;28;20610;-74
2022/01/04 06:39:45;;;;;;;1.13;1.03;;;;;;;6.97;100.00;98719.38;5072467;28;20175;-74
2022/01/04 06:42:12;;;;;;;2.00;1.70;;;;;;;6.98;100.00;98723.69;5071153;28;20178;-74
2022/01/04 06:44:38;;;;;;;1.53;1.43;;;;;;;6.98;100.00;98723.69;5072273;28;20190;-74
2022/01/04 06:47:04;;;;;;;0.53;0.53;;;;;;;6.99;100.00;98721.78;5072205;28;20175;-74
2022/01/04 06:49:29;;;;;;;2.60;2.37;;;;;;;7.01;100.00;98712.16;5071010;28;20618;-74
2022/01/04 06:51:55;;;;;;;0.83;0.83;;;;;;;7.00;100.00;98707.88;5072256;28;20538;-73
2022/01/04 06:54:20;;;;;;;0.27;0.27;;;;;;;6.99;100.00;98710.91;5070750;28;20203;-74
2022/01/04 06:56:47;;;;;;;1.70;1.57;;;;;;;6.99;100.00;98703.56;5072001;28;20174;-74
2022/01/04 06:59:16;;;;;;;2.20;2.00;;;;;;;7.01;100.00;98693.16;5072051;28;20216;-74
2022/01/04 07:01:42;;;;;;;0.70;0.70;;;;;;;7.03;100.00;98701.75;5069402;28;20688;-74
2022/01/04 07:04:08;;;;;;;2.30;2.10;;;;;;;7.04;100.00;98713.41;5071697;28;20179;-74
2022/01/04 07:06:34;;;;;;;13.37;2.87;;;;;;;7.04;100.00;98700.63;5071268;28;20654;-74
2022/01/04 07:09:00;;;;;;;0.77;0.77;;;;;;;7.08;100.00;98703.47;5071735;28;20182;-74
2022/01/04 07:11:26;;;;;;;1.17;1.07;;;;;;;7.06;100.00;98706.53;5072504;28;20830;-74
2022/01/04 07:13:51;;;;;;;1.70;1.60;;;;;;;7.07;100.00;98697.25;5071767;28;20198;-75
2022/01/04 07:16:17;;;;;;;1.27;1.17;;;;;;;7.04;100.00;98697.91;5072151;28;20534;-74
2022/01/04 07:18:48;;;;;;;3.00;2.30;;;;;;;7.04;100.00;98702.56;5072009;28;20185;-74
2022/01/04 07:21:17;;;;;;;1.40;1.30;;;;;;;7.04;100.00;98697.91;5071064;28;20251;-74
2022/01/04 07:23:43;;;;;;;2.27;2.07;;;;;;;7.03;100.00;98688.19;5070496;28;20186;-74
2022/01/04 07:26:14;;;;;;;1.10;0.90;;;;;;;7.04;100.00;98689.78;5071523;28;20650;-74
2022/01/04 07:28:42;;;;;;;1.03;1.00;;;;;;;7.03;100.00;98699.06;5071749;28;20162;-74
2022/01/04 07:31:07;;;;;;;1.60;1.03;;;;;;;7.02;100.00;98683.09;5070052;28;20286;-74
2022/01/04 07:33:33;;;;;;;3.27;2.73;;;;;;;7.03;100.00;98676.53;5069892;28;20631;-74
2022/01/04 07:35:59;;;;;;;5.07;2.90;;;;;;;7.04;100.00;98675.41;5070205;28;20190;-74
2022/01/04 07:38:24;;;;;;;1.07;1.03;;;;;;;7.03;100.00;98663.75;5071544;28;20642;-75
2022/01/04 07:40:49;;;;;;;3.50;3.17;;;;;;;7.02;100.00;98655.94;5069996;28;20299;-74
2022/01/04 07:43:15;;;;;;;1.10;1.00;;;;;;;7.03;100.00;98663.75;5071169;28;20500;-74
2022/01/04 07:45:40;;;;;;;2.77;2.50;;;;;;;7.00;100.00;98669.84;5071094;28;20209;-74
2022/01/04 07:48:10;;;;;;;2.57;2.23;;;;;;;7.01;100.00;98665.22;5071123;28;20175;-74
2022/01/04 07:50:37;;;;;;;4.03;3.63;;;;;;;7.01;100.00;98671.44;5071208;28;20243;-74
2022/01/04 07:53:02;;;;;;;2.50;2.30;;;;;;;7.01;100.00;98670.66;5071122;28;20224;-74
2022/01/04 07:55:27;;;;;;;1.30;1.30;;;;;;;7.00;100.00;98682.63;5070836;28;20206;-75
2022/01/04 07:57:53;;;;;;;2.37;2.17;;;;;;;6.98;100.00;98677.53;5071008;28;20657;-74
2022/01/04 08:00:20;;;;;;;1.80;1.50;;;;;;;6.97;100.00;98678.66;5071067;28;20210;-74
2022/01/04 08:02:45;;;;;;;4.03;2.10;;;;;;;6.96;100.00;98682.50;5070809;28;20170;-74
2022/01/04 08:05:11;;;;;;;1.63;1.53;;;;;;;6.93;100.00;98683.16;5070855;28;20220;-75
2022/01/04 08:07:37;;;;;;;1.10;1.00;;;;;;;6.91;100.00;98677.25;5071032;28;20201;-73
2022/01/04 08:10:04;;;;;;;4.90;2.17;;;;;;;6.91;100.00;98677.25;5070828;28;20658;-74
2022/01/04 08:12:29;;;;;;;2.67;2.20;;;;;;;6.91;100.00;98671.03;5070825;28;20206;-73
2022/01/04 08:14:55;;;;;;;1.77;1.67;;;;;;;6.89;100.00;98676.00;5070516;28;20359;-73
2022/01/04 08:17:20;;;;;;;2.00;1.40;;;;;;;6.88;100.00;98661.63;5070940;28;20179;-74
2022/01/04 08:19:46;;;;;;;1.33;1.23;;;;;;;6.88;100.00;98661.63;5071040;28;20711;-74
2022/01/04 08:22:11;;;;;;;3.63;2.47;;;;;;;6.90;100.00;98661.31;5070511;28;20662;-73
2022/01/04 08:24:37;;;;;;;1.63;1.50;;;;;;;6.91;100.00;98652.03;5070437;28;20667;-74
2022/01/04 08:27:02;;;;;;;5.53;2.23;;;;;;;6.91;100.00;98663.69;5070882;28;20225;-75
2022/01/04 08:29:29;;;;;;;1.30;1.20;;;;;;;6.92;100.00;98673.41;5069510;28;20213;-75
2022/01/04 08:31:54;;;;;;;1.70;1.53;;;;;;;6.92;100.00;98672.63;5069229;28;20627;-74
2022/01/04 08:34:20;;;;;;;1.77;1.67;;;;;;;6.92;100.00;98667.97;5070479;28;20197;-75
2022/01/04 08:36:45;;;;;;;0.60;0.60;;;;;;;6.94;100.00;98648.66;5070456;28;20551;-75
2022/01/04 08:39:14;;;;;;;2.67;2.00;;;;;;;6.94;100.00;98654.06;5067584;28;20656;-74
2022/01/04 08:41:45;;;;;;;2.40;2.03;;;;;;;6.94;100.00;98643.22;5070866;28;20335;-74
2022/01/04 08:44:10;;;;;;;3.63;2.57;;;;;;;6.95;100.00;98640.19;5079591;28;20158;-74
2022/01/04 08:46:36;;;;;;;3.03;2.73;;;;;;;6.94;100.00;98641.28;5074519;28;20166;-74
2022/01/04 08:49:06;;;;;;;3.30;2.37;;;;;;;6.95;100.00;98645.63;5069474;28;20331;-74
2022/01/04 08:51:31;;;;;;;4.67;3.00;;;;;;;6.95;100.00;98642.91;5071058;28;20173;-75
2022/01/04 08:53:57;;;;;;;2.07;1.50;;;;;;;6.96;100.00;98628.22;5071278;28;20198;-74
2022/01/04 08:56:22;;;;;;;2.90;1.47;;;;;;;6.98;100.00;98638.75;5069704;28;20190;-74
2022/01/04 08:58:48;;;;;;;3.50;2.80;;;;;;;6.99;100.00;98640.31;5070866;28;20199;-74
2022/01/04 09:01:13;;;;;;;4.60;3.20;;;;;;;7.00;100.00;98647.34;5069116;28;20201;-75
2022/01/04 09:03:39;;;;;;;1.90;1.47;;;;;;;6.99;100.00;98643.84;5070391;28;20183;-74
2022/01/04 09:06:05;;;;;;;2.40;1.40;;;;;;;6.98;100.00;98625.16;5070244;28;20187;-74
2022/01/04 09:08:31;;;;;;;3.87;3.13;;;;;;;6.97;100.00;98618.16;5070399;28;20171;-74
2022/01/04 09:10:56;;;;;;;2.43;2.13;;;;;;;6.99;100.00;98611.25;5068694;28;20533;-74
2022/01/04 09:13:22;;;;;;;3.43;3.00;;;;;;;7.00;100.00;98609.34;5067978;28;20174;-75
2022/01/04 09:18:48;;;;;;;4.33;2.53;;;;;;;6.99;100.00;98608.53;5066830;28;20183;-74
2022/01/04 09:21:24;;;;;;;0.97;0.93;;;;;;;7.01;100.00;98600.84;5068369;28;20182;-75
2022/01/04 09:23:50;;;;;;;3.43;2.57;;;;;;;6.99;100.00;98597.69;5067805;28;20190;-74
2022/01/04 09:26:17;;;;;;;7.00;2.73;;;;;;;6.99;100.00;98592.25;5069339;28;20182;-74
2022/01/04 09:28:43;;;;;;;1.80;1.47;;;;;;;7.00;100.00;98601.97;5069549;28;20638;-74
2022/01/04 09:31:09;;;;;;;3.30;2.80;;;;;;;7.00;100.00;98599.25;5068365;28;20179;-74
2022/01/04 09:33:34;;;;;;;2.13;1.77;;;;;;;7.01;100.00;98606.28;5070756;28;20577;-74
2022/01/04 09:36:00;;;;;;;2.50;1.90;;;;;;;7.04;100.00;98597.47;5073126;28;20174;-74
2022/01/04 09:38:25;;;;;;;2.80;2.37;;;;;;;7.08;100.00;98611.94;5073225;28;20686;-74
2022/01/04 09:40:53;;;;;;;3.23;2.53;;;;;;;7.10;100.00;98611.66;5073274;28;20171;-75
2022/01/04 09:43:20;;;;;;;1.97;1.87;;;;;;;7.10;100.00;98608.94;5073828;28;20177;-74
2022/01/04 09:45:46;;;;;;;3.13;2.33;;;;;;;7.12;100.00;98607.47;5073395;28;20170;-77
2022/01/04 09:48:11;;;;;;;4.00;2.97;;;;;;;7.13;100.00;98609.06;5073458;28;20170;-76
2022/01/04 09:50:39;;;;;;;3.87;3.47;;;;;;;7.17;100.00;98601.03;5073414;28;20301;-84
2022/01/04 09:53:06;;;;;;;3.03;2.17;;;;;;;7.17;100.00;98595.59;5073387;28;20677;-76
2022/01/04 09:55:38;;;;;;;3.37;2.77;;;;;;;7.18;100.00;98599.09;5073008;28;20679;-74
2022/01/04 09:58:04;;;;;;;3.07;2.33;;;;;;;7.14;100.00;98591.63;5073625;28;20574;-74
2022/01/04 10:00:30;;;;;;;5.17;2.33;;;;;;;7.15;100.00;98574.19;5071621;28;20258;-74
2022/01/04 10:03:11;;;;;;;4.07;2.33;;;;;;;7.18;100.00;98594.47;5073108;28;20206;-74
2022/01/04 10:05:37;;;;;;;4.50;2.97;;;;;;;7.23;100.00;98601.59;5073041;28;20177;-73
2022/01/04 10:08:08;;;;;;;3.73;3.00;;;;;;;7.23;100.00;98598.88;5072883;28;20171;-74
2022/01/04 10:10:35;;;;;;;1.33;1.17;;;;;;;7.17;100.00;98598.31;5073238;28;20510;-74
2022/01/04 10:13:09;;;;;;;1.27;1.10;;;;;;;7.14;100.00;98609.84;5071443;28;20231;-74
2022/01/04 10:15:44;;;;;;;2.60;2.40;;;;;;;7.14;100.00;98607.91;5072715;28;20583;-74
2022/01/04 10:18:12;;;;;;;2.10;1.80;;;;;;;7.13;100.00;98602.81;5072899;28;20532;-73
2022/01/04 10:20:46;;;;;;;3.20;2.67;;;;;;;7.12;100.00;98585.75;5072887;28;20177;-73
2022/01/04 10:23:16;;;;;;;3.67;3.33;;;;;;;7.12;100.00;98602.03;5072601;28;20181;-74
2022/01/04 10:25:42;;;;;;;3.40;3.10;;;;;;;7.11;100.00;98605.88;5072380;28;20175;-74
2022/01/04 10:28:08;;;;;;;2.40;2.20;;;;;;;7.12;100.00;98601.25;5072862;28;20257;-73
2022/01/04 10:30:43;;;;;;;5.07;4.33;;;;;;;7.11;100.00;98581.44;5072826;28;20175;-74
2022/01/04 10:33:13;;;;;;;2.90;2.53;;;;;;;7.12;100.00;98572.16;5072529;28;20265;-73
2022/01/04 10:35:43;;;;;;;4.37;1.40;;;;;;;7.12;100.00;98566.72;5072503;28;20233;-74
2022/01/04 10:38:13;;;;;;;3.40;3.10;;;;;;;7.14;100.00;98544.66;5072432;28;20566;-74
2022/01/04 10:40:40;;;;;;;4.40;2.33;;;;;;;7.18;100.00;98564.59;5072227;28;20163;-73
2022/01/04 10:43:09;;;;;;;3.20;2.90;;;;;;;7.15;100.00;98568.78;5070995;28;20194;-74
2022/01/04 10:45:35;;;;;;;1.13;1.03;;;;;;;7.15;100.00;98565.25;5071693;28;20222;-74
2022/01/04 10:48:29;;;;;;;2.80;2.60;;;;;;;7.14;100.00;98561.75;5072082;28;20162;-74
2022/01/04 10:51:07;;;;;;;6.60;2.50;;;;;;;7.10;100.00;98562.78;5070825;28;20171;-74
2022/01/04 10:53:42;;;;;;;3.80;3.33;;;;;;;7.06;100.00;98575.41;5072141;28;20196;-74
2022/01/04 10:56:10;;;;;;;2.53;2.20;;;;;;;7.07;100.00;98583.22;5071961;28;20169;-74
2022/01/04 10:58:43;;;;;;;1.97;1.87;;;;;;;7.07;100.00;98572.34;5071895;28;20534;-74
2022/01/04 11:01:14;;;;;;;0.67;0.67;;;;;;;7.06;100.00;98565.34;5071980;28;20175;-74
2022/01/04 11:03:49;;;;;;;1.13;1.07;;;;;;;7.04;100.00;98554.03;5071906;28;20175;-74
2022/01/04 11:06:18;;;;;;;2.63;2.43;;;;;;;7.05;100.00;98539.31;5071656;28;20180;-74
2022/01/04 11:08:44;;;;;;;3.80;3.50;;;;;;;7.04;100.00;98540.44;5071716;28;20642;-74
2022/01/04 11:11:09;;;;;;;3.60;3.23;;;;;;;7.03;100.00;98548.94;5070429;28;20178;-74
2022/01/04 11:13:35;;;;;;;2.13;2.00;;;;;;;7.04;100.00;98540.44;5071797;28;20216;-74
2022/01/04 11:16:01;;;;;;;4.77;4.03;;;;;;;7.02;100.00;98534.56;5071462;28;20189;-74
2022/01/04 11:18:28;;;;;;;3.57;3.20;;;;;;;7.05;100.00;98531.16;5071603;28;20173;-74
2022/01/04 11:20:54;;;;;;;5.50;4.17;;;;;;;7.04;100.00;98521.44;5071623;28;20162;-74
2022/01/04 11:23:23;;;;;;;6.17;4.47;;;;;;;7.07;100.00;98528.91;5071234;28;20217;-74
2022/01/04 11:25:50;;;;;;;5.70;3.70;;;;;;;7.10;100.00;98539.13;5069780;28;20201;-74
2022/01/04 11:28:15;;;;;;;5.20;4.70;;;;;;;7.13;100.00;98524.88;5071140;28;20265;-74
2022/01/04 11:30:51;;;;;;;7.53;6.00;;;;;;;7.20;100.00;98521.59;5071268;28;20253;-74
2022/01/04 11:33:25;;;;;;;1.97;1.80;;;;;;;7.23;100.00;98528.28;5071028;28;20182;-74
2022/01/04 11:35:51;;;;;;;2.43;2.23;;;;;;;7.21;100.00;98519.66;5070662;28;20201;-73
2022/01/04 11:38:34;;;;;;;1.47;1.37;;;;;;;7.19;100.00;98517.28;5070927;28;20179;-74